sensor_id;sensor_type;location;lat;lon;timestamp;P1;durP1;ratioP1;P2;durP2;ratioP2
70301;SDS011;57706;56.326;43.882;2023-12-22T00:00:12;13.63;;;7.95;;
70301;SDS011;57706;56.326;43.882;2023-12-22T00:02:38;12.27;;;7.35;;
70301;SDS011;57706;56.326;43.882;2023-12-22T00:05:04;12.55;;;7.57;;
70301;SDS011;57706;56.326;43.882;2023-12-22T00:07:30;11.35;;;6.93;;
70301;SDS011;57706;56.326;43.882;2023-12-22T00:09:56;12.63;;;6.65;;
70301;SDS011;57706;56.326;43.882;2023-12-22T00:12:22;12.95;;;7.63;;
70301;SDS011;57706;56.326;43.882;2023-12-22T00:14:48;13.13;;;6.95;;
70301;SDS011;57706;56.326;43.882;2023-12-22T00:17:14;12.55;;;7.05;;
70301;SDS011;57706;56.326;43.882;2023-12-22T00:19:40;13.13;;;7.70;;
70301;SDS011;57706;56.326;43.882;2023-12-22T00:22:06;13.88;;;7.78;;
70301;SDS011;57706;56.326;43.882;2023-12-22T00:24:32;11.88;;;7.47;;
70301;SDS011;57706;56.326;43.882;2023-12-22T00:26:58;12.00;;;6.88;;
70301;SDS011;57706;56.326;43.882;2023-12-22T00:29:24;14.32;;;6.85;;
70301;SDS011;57706;56.326;43.882;2023-12-22T00:31:50;9.88;;;5.97;;
70301;SDS011;57706;56.326;43.882;2023-12-22T00:34:16;12.55;;;5.93;;
70301;SDS011;57706;56.326;43.882;2023-12-22T00:36:42;12.55;;;6.53;;
70301;SDS011;57706;56.326;43.882;2023-12-22T00:39:08;12.30;;;7.05;;
70301;SDS011;57706;56.326;43.882;2023-12-22T00:41:34;11.07;;;6.30;;
70301;SDS011;57706;56.326;43.882;2023-12-22T00:44:05;10.13;;;6.30;;
70301;SDS011;57706;56.326;43.882;2023-12-22T00:46:30;10.57;;;6.68;;
70301;SDS011;57706;56.326;43.882;2023-12-22T00:48:57;10.25;;;5.78;;
70301;SDS011;57706;56.326;43.882;2023-12-22T00:51:23;9.88;;;6.03;;
70301;SDS011;57706;56.326;43.882;2023-12-22T00:53:48;10.50;;;5.85;;
70301;SDS011;57706;56.326;43.882;2023-12-22T00:56:14;11.77;;;6.55;;
70301;SDS011;57706;56.326;43.882;2023-12-22T00:58:40;10.00;;;6.22;;
70301;SDS011;57706;56.326;43.882;2023-12-22T01:01:06;11.40;;;6.80;;
70301;SDS011;57706;56.326;43.882;2023-12-22T01:03:32;10.95;;;5.97;;
70301;SDS011;57706;56.326;43.882;2023-12-22T01:05:58;10.73;;;6.53;;
70301;SDS011;57706;56.326;43.882;2023-12-22T01:08:24;10.50;;;6.40;;
70301;SDS011;57706;56.326;43.882;2023-12-22T01:10:49;11.55;;;6.07;;
70301;SDS011;57706;56.326;43.882;2023-12-22T01:13:15;11.57;;;6.18;;
70301;SDS011;57706;56.326;43.882;2023-12-22T01:15:41;11.25;;;6.82;;
70301;SDS011;57706;56.326;43.882;2023-12-22T01:18:09;13.85;;;7.32;;
70301;SDS011;57706;56.326;43.882;2023-12-22T01:20:36;13.02;;;7.00;;
70301;SDS011;57706;56.326;43.882;2023-12-22T01:23:02;9.82;;;5.70;;
70301;SDS011;57706;56.326;43.882;2023-12-22T01:25:28;9.43;;;5.85;;
70301;SDS011;57706;56.326;43.882;2023-12-22T01:27:59;11.57;;;6.60;;
70301;SDS011;57706;56.326;43.882;2023-12-22T01:30:25;13.45;;;7.13;;
70301;SDS011;57706;56.326;43.882;2023-12-22T01:32:51;11.13;;;6.13;;
70301;SDS011;57706;56.326;43.882;2023-12-22T01:35:17;13.23;;;7.25;;
70301;SDS011;57706;56.326;43.882;2023-12-22T01:37:44;12.63;;;7.03;;
70301;SDS011;57706;56.326;43.882;2023-12-22T01:40:13;13.05;;;6.80;;
70301;SDS011;57706;56.326;43.882;2023-12-22T01:42:39;12.35;;;7.13;;
70301;SDS011;57706;56.326;43.882;2023-12-22T01:45:05;12.73;;;7.45;;
70301;SDS011;57706;56.326;43.882;2023-12-22T01:47:36;15.95;;;7.57;;
70301;SDS011;57706;56.326;43.882;2023-12-22T01:50:04;15.07;;;7.85;;
70301;SDS011;57706;56.326;43.882;2023-12-22T01:52:31;13.93;;;6.85;;
70301;SDS011;57706;56.326;43.882;2023-12-22T01:54:58;12.32;;;6.60;;
70301;SDS011;57706;56.326;43.882;2023-12-22T01:57:24;11.68;;;6.80;;
70301;SDS011;57706;56.326;43.882;2023-12-22T01:59:50;12.40;;;7.07;;
70301;SDS011;57706;56.326;43.882;2023-12-22T02:02:16;13.43;;;6.63;;
70301;SDS011;57706;56.326;43.882;2023-12-22T02:04:42;12.43;;;6.43;;
70301;SDS011;57706;56.326;43.882;2023-12-22T02:07:10;12.15;;;6.90;;
70301;SDS011;57706;56.326;43.882;2023-12-22T02:09:36;10.88;;;6.82;;
70301;SDS011;57706;56.326;43.882;2023-12-22T02:12:03;13.20;;;7.80;;
70301;SDS011;57706;56.326;43.882;2023-12-22T02:14:29;11.93;;;7.40;;
70301;SDS011;57706;56.326;43.882;2023-12-22T02:19:44;13.90;;;7.38;;
70301;SDS011;57706;56.326;43.882;2023-12-22T02:22:12;12.88;;;6.70;;
70301;SDS011;57706;56.326;43.882;2023-12-22T02:24:38;12.65;;;7.13;;
70301;SDS011;57706;56.326;43.882;2023-12-22T02:27:06;14.32;;;8.10;;
70301;SDS011;57706;56.326;43.882;2023-12-22T02:29:40;16.58;;;7.30;;
70301;SDS011;57706;56.326;43.882;2023-12-22T02:32:10;14.23;;;7.60;;
70301;SDS011;57706;56.326;43.882;2023-12-22T02:34:41;13.57;;;7.70;;
70301;SDS011;57706;56.326;43.882;2023-12-22T02:37:09;15.32;;;7.82;;
70301;SDS011;57706;56.326;43.882;2023-12-22T02:39:36;15.20;;;8.07;;
70301;SDS011;57706;56.326;43.882;2023-12-22T02:42:03;14.98;;;7.30;;
70301;SDS011;57706;56.326;43.882;2023-12-22T02:44:31;14.50;;;8.32;;
70301;SDS011;57706;56.326;43.882;2023-12-22T02:46:57;14.55;;;7.95;;
70301;SDS011;57706;56.326;43.882;2023-12-22T02:49:23;14.50;;;7.93;;
70301;SDS011;57706;56.326;43.882;2023-12-22T02:51:49;15.27;;;8.23;;
70301;SDS011;57706;56.326;43.882;2023-12-22T02:54:14;13.05;;;7.78;;
70301;SDS011;57706;56.326;43.882;2023-12-22T02:56:40;14.40;;;7.82;;
70301;SDS011;57706;56.326;43.882;2023-12-22T02:59:08;16.10;;;9.40;;
70301;SDS011;57706;56.326;43.882;2023-12-22T03:01:35;14.88;;;8.18;;
70301;SDS011;57706;56.326;43.882;2023-12-22T03:04:00;18.20;;;9.93;;
70301;SDS011;57706;56.326;43.882;2023-12-22T03:06:26;17.27;;;9.23;;
70301;SDS011;57706;56.326;43.882;2023-12-22T03:08:52;16.17;;;8.88;;
70301;SDS011;57706;56.326;43.882;2023-12-22T03:11:18;18.05;;;9.38;;
70301;SDS011;57706;56.326;43.882;2023-12-22T03:13:44;17.02;;;9.23;;
70301;SDS011;57706;56.326;43.882;2023-12-22T03:16:10;15.45;;;8.13;;
70301;SDS011;57706;56.326;43.882;2023-12-22T03:18:40;17.13;;;7.97;;
70301;SDS011;57706;56.326;43.882;2023-12-22T03:21:05;18.10;;;9.65;;
70301;SDS011;57706;56.326;43.882;2023-12-22T03:23:31;17.55;;;8.75;;
70301;SDS011;57706;56.326;43.882;2023-12-22T03:25:57;17.83;;;8.98;;
70301;SDS011;57706;56.326;43.882;2023-12-22T03:28:23;15.50;;;8.93;;
70301;SDS011;57706;56.326;43.882;2023-12-22T03:30:49;17.05;;;8.40;;
70301;SDS011;57706;56.326;43.882;2023-12-22T03:33:15;16.52;;;8.60;;
70301;SDS011;57706;56.326;43.882;2023-12-22T03:35:41;17.98;;;9.80;;
70301;SDS011;57706;56.326;43.882;2023-12-22T03:38:07;17.08;;;8.15;;
70301;SDS011;57706;56.326;43.882;2023-12-22T03:40:33;22.15;;;11.55;;
70301;SDS011;57706;56.326;43.882;2023-12-22T03:42:59;17.35;;;9.85;;
70301;SDS011;57706;56.326;43.882;2023-12-22T03:45:25;26.42;;;12.13;;
70301;SDS011;57706;56.326;43.882;2023-12-22T03:47:51;20.65;;;11.15;;
70301;SDS011;57706;56.326;43.882;2023-12-22T03:50:17;19.52;;;11.40;;
70301;SDS011;57706;56.326;43.882;2023-12-22T03:52:43;21.30;;;10.55;;
70301;SDS011;57706;56.326;43.882;2023-12-22T03:55:09;16.98;;;9.07;;
70301;SDS011;57706;56.326;43.882;2023-12-22T03:57:35;22.40;;;10.20;;
70301;SDS011;57706;56.326;43.882;2023-12-22T04:00:01;22.10;;;10.52;;
70301;SDS011;57706;56.326;43.882;2023-12-22T04:02:30;18.55;;;9.30;;
70301;SDS011;57706;56.326;43.882;2023-12-22T04:04:56;21.85;;;10.98;;
70301;SDS011;57706;56.326;43.882;2023-12-22T04:07:22;19.20;;;9.68;;
70301;SDS011;57706;56.326;43.882;2023-12-22T04:09:48;19.60;;;9.82;;
70301;SDS011;57706;56.326;43.882;2023-12-22T04:12:14;22.70;;;9.88;;
70301;SDS011;57706;56.326;43.882;2023-12-22T04:14:39;20.13;;;9.85;;
70301;SDS011;57706;56.326;43.882;2023-12-22T04:17:05;21.63;;;9.57;;
70301;SDS011;57706;56.326;43.882;2023-12-22T04:19:31;20.27;;;9.48;;
70301;SDS011;57706;56.326;43.882;2023-12-22T04:21:57;23.33;;;10.40;;
70301;SDS011;57706;56.326;43.882;2023-12-22T04:24:23;19.52;;;10.52;;
70301;SDS011;57706;56.326;43.882;2023-12-22T04:26:49;21.08;;;10.35;;
70301;SDS011;57706;56.326;43.882;2023-12-22T04:29:15;18.65;;;10.15;;
70301;SDS011;57706;56.326;43.882;2023-12-22T04:31:41;19.60;;;9.75;;
70301;SDS011;57706;56.326;43.882;2023-12-22T04:34:07;21.90;;;9.95;;
70301;SDS011;57706;56.326;43.882;2023-12-22T04:36:32;17.30;;;10.40;;
70301;SDS011;57706;56.326;43.882;2023-12-22T04:38:58;16.50;;;8.73;;
70301;SDS011;57706;56.326;43.882;2023-12-22T04:41:24;15.82;;;9.10;;
70301;SDS011;57706;56.326;43.882;2023-12-22T04:43:50;15.57;;;7.82;;
70301;SDS011;57706;56.326;43.882;2023-12-22T04:46:16;18.27;;;8.80;;
70301;SDS011;57706;56.326;43.882;2023-12-22T04:48:42;19.80;;;9.23;;
70301;SDS011;57706;56.326;43.882;2023-12-22T04:51:08;19.45;;;10.00;;
70301;SDS011;57706;56.326;43.882;2023-12-22T04:53:34;19.95;;;10.80;;
70301;SDS011;57706;56.326;43.882;2023-12-22T04:56:00;21.00;;;10.20;;
70301;SDS011;57706;56.326;43.882;2023-12-22T04:58:26;17.95;;;9.65;;
70301;SDS011;57706;56.326;43.882;2023-12-22T05:00:52;19.83;;;11.05;;
70301;SDS011;57706;56.326;43.882;2023-12-22T05:03:18;25.42;;;11.25;;
70301;SDS011;57706;56.326;43.882;2023-12-22T05:05:44;17.60;;;9.80;;
70301;SDS011;57706;56.326;43.882;2023-12-22T05:08:10;21.20;;;9.48;;
70301;SDS011;57706;56.326;43.882;2023-12-22T05:10:36;22.15;;;10.45;;
70301;SDS011;57706;56.326;43.882;2023-12-22T05:13:02;23.00;;;9.55;;
70301;SDS011;57706;56.326;43.882;2023-12-22T05:15:28;17.67;;;10.10;;
70301;SDS011;57706;56.326;43.882;2023-12-22T05:17:54;20.45;;;10.52;;
70301;SDS011;57706;56.326;43.882;2023-12-22T05:20:20;20.85;;;10.45;;
70301;SDS011;57706;56.326;43.882;2023-12-22T05:22:46;18.98;;;9.85;;
70301;SDS011;57706;56.326;43.882;2023-12-22T05:25:13;20.02;;;9.77;;
70301;SDS011;57706;56.326;43.882;2023-12-22T05:27:39;20.40;;;10.20;;
70301;SDS011;57706;56.326;43.882;2023-12-22T05:30:07;20.08;;;10.70;;
70301;SDS011;57706;56.326;43.882;2023-12-22T05:32:33;18.05;;;10.23;;
70301;SDS011;57706;56.326;43.882;2023-12-22T05:34:59;20.48;;;10.38;;
70301;SDS011;57706;56.326;43.882;2023-12-22T05:37:25;19.02;;;9.65;;
70301;SDS011;57706;56.326;43.882;2023-12-22T05:39:51;17.52;;;10.20;;
70301;SDS011;57706;56.326;43.882;2023-12-22T05:42:17;18.55;;;10.23;;
70301;SDS011;57706;56.326;43.882;2023-12-22T05:44:43;19.35;;;10.02;;
70301;SDS011;57706;56.326;43.882;2023-12-22T05:47:11;20.02;;;10.63;;
70301;SDS011;57706;56.326;43.882;2023-12-22T05:49:41;20.75;;;11.07;;
70301;SDS011;57706;56.326;43.882;2023-12-22T05:52:07;24.40;;;11.75;;
70301;SDS011;57706;56.326;43.882;2023-12-22T05:54:35;20.45;;;9.60;;
70301;SDS011;57706;56.326;43.882;2023-12-22T05:57:01;21.67;;;10.45;;
70301;SDS011;57706;56.326;43.882;2023-12-22T05:59:30;23.92;;;12.73;;
70301;SDS011;57706;56.326;43.882;2023-12-22T06:01:58;20.02;;;10.23;;
70301;SDS011;57706;56.326;43.882;2023-12-22T06:04:25;21.35;;;10.30;;
70301;SDS011;57706;56.326;43.882;2023-12-22T06:06:51;21.45;;;10.43;;
70301;SDS011;57706;56.326;43.882;2023-12-22T06:09:16;20.25;;;9.90;;
70301;SDS011;57706;56.326;43.882;2023-12-22T06:11:45;20.95;;;10.82;;
70301;SDS011;57706;56.326;43.882;2023-12-22T06:14:12;30.48;;;14.00;;
70301;SDS011;57706;56.326;43.882;2023-12-22T06:16:38;45.00;;;20.35;;
70301;SDS011;57706;56.326;43.882;2023-12-22T06:19:04;45.35;;;19.23;;
70301;SDS011;57706;56.326;43.882;2023-12-22T06:21:30;43.47;;;20.20;;
70301;SDS011;57706;56.326;43.882;2023-12-22T06:23:56;45.85;;;20.05;;
70301;SDS011;57706;56.326;43.882;2023-12-22T06:26:22;47.70;;;20.98;;
70301;SDS011;57706;56.326;43.882;2023-12-22T06:28:47;46.15;;;20.42;;
70301;SDS011;57706;56.326;43.882;2023-12-22T06:31:17;44.92;;;22.25;;
70301;SDS011;57706;56.326;43.882;2023-12-22T06:33:44;46.97;;;19.65;;
70301;SDS011;57706;56.326;43.882;2023-12-22T06:36:20;41.70;;;20.92;;
70301;SDS011;57706;56.326;43.882;2023-12-22T06:38:50;32.65;;;16.27;;
70301;SDS011;57706;56.326;43.882;2023-12-22T06:41:22;36.20;;;16.67;;
70301;SDS011;57706;56.326;43.882;2023-12-22T06:43:49;33.33;;;16.38;;
70301;SDS011;57706;56.326;43.882;2023-12-22T06:46:19;30.83;;;15.40;;
70301;SDS011;57706;56.326;43.882;2023-12-22T06:48:52;32.20;;;15.63;;
70301;SDS011;57706;56.326;43.882;2023-12-22T06:51:20;30.23;;;15.80;;
70301;SDS011;57706;56.326;43.882;2023-12-22T06:53:47;31.98;;;16.80;;
70301;SDS011;57706;56.326;43.882;2023-12-22T06:56:20;34.38;;;16.20;;
70301;SDS011;57706;56.326;43.882;2023-12-22T06:58:47;29.02;;;15.13;;
70301;SDS011;57706;56.326;43.882;2023-12-22T07:01:18;32.40;;;17.42;;
70301;SDS011;57706;56.326;43.882;2023-12-22T07:03:48;26.65;;;15.57;;
70301;SDS011;57706;56.326;43.882;2023-12-22T07:06:15;26.13;;;15.52;;
70301;SDS011;57706;56.326;43.882;2023-12-22T07:08:42;25.73;;;13.77;;
70301;SDS011;57706;56.326;43.882;2023-12-22T07:11:09;25.10;;;13.80;;
70301;SDS011;57706;56.326;43.882;2023-12-22T07:13:36;23.25;;;14.70;;
70301;SDS011;57706;56.326;43.882;2023-12-22T07:16:03;25.05;;;13.65;;
70301;SDS011;57706;56.326;43.882;2023-12-22T07:18:29;25.52;;;14.20;;
70301;SDS011;57706;56.326;43.882;2023-12-22T07:21:00;25.90;;;15.23;;
70301;SDS011;57706;56.326;43.882;2023-12-22T07:23:26;26.85;;;15.30;;
70301;SDS011;57706;56.326;43.882;2023-12-22T07:25:52;29.52;;;16.65;;
70301;SDS011;57706;56.326;43.882;2023-12-22T07:28:17;26.95;;;14.77;;
70301;SDS011;57706;56.326;43.882;2023-12-22T07:30:43;25.42;;;15.15;;
70301;SDS011;57706;56.326;43.882;2023-12-22T07:33:09;25.90;;;15.07;;
70301;SDS011;57706;56.326;43.882;2023-12-22T07:35:35;27.40;;;15.23;;
70301;SDS011;57706;56.326;43.882;2023-12-22T07:38:01;24.05;;;13.82;;
70301;SDS011;57706;56.326;43.882;2023-12-22T07:40:29;27.73;;;14.65;;
70301;SDS011;57706;56.326;43.882;2023-12-22T07:42:56;29.38;;;16.80;;
70301;SDS011;57706;56.326;43.882;2023-12-22T07:45:22;37.70;;;19.65;;
70301;SDS011;57706;56.326;43.882;2023-12-22T07:47:48;40.97;;;20.38;;
70301;SDS011;57706;56.326;43.882;2023-12-22T07:50:14;28.67;;;15.38;;
70301;SDS011;57706;56.326;43.882;2023-12-22T07:52:40;28.25;;;15.23;;
70301;SDS011;57706;56.326;43.882;2023-12-22T07:55:07;20.70;;;11.88;;
70301;SDS011;57706;56.326;43.882;2023-12-22T07:57:37;24.50;;;13.63;;
70301;SDS011;57706;56.326;43.882;2023-12-22T08:00:07;18.77;;;11.00;;
70301;SDS011;57706;56.326;43.882;2023-12-22T08:02:40;18.88;;;11.38;;
70301;SDS011;57706;56.326;43.882;2023-12-22T08:05:06;20.63;;;9.73;;
70301;SDS011;57706;56.326;43.882;2023-12-22T08:07:32;19.10;;;11.02;;
70301;SDS011;57706;56.326;43.882;2023-12-22T08:09:58;20.58;;;10.05;;
70301;SDS011;57706;56.326;43.882;2023-12-22T08:12:24;18.15;;;10.25;;
70301;SDS011;57706;56.326;43.882;2023-12-22T08:14:50;20.13;;;11.60;;
70301;SDS011;57706;56.326;43.882;2023-12-22T08:17:16;19.00;;;10.35;;
70301;SDS011;57706;56.326;43.882;2023-12-22T08:19:41;18.40;;;9.07;;
70301;SDS011;57706;56.326;43.882;2023-12-22T08:22:11;17.20;;;9.43;;
70301;SDS011;57706;56.326;43.882;2023-12-22T08:24:40;17.55;;;10.10;;
70301;SDS011;57706;56.326;43.882;2023-12-22T08:27:07;18.45;;;9.10;;
70301;SDS011;57706;56.326;43.882;2023-12-22T08:29:33;15.38;;;9.48;;
70301;SDS011;57706;56.326;43.882;2023-12-22T08:31:59;16.33;;;8.95;;
70301;SDS011;57706;56.326;43.882;2023-12-22T08:34:27;16.25;;;8.88;;
70301;SDS011;57706;56.326;43.882;2023-12-22T08:36:53;16.63;;;8.45;;
70301;SDS011;57706;56.326;43.882;2023-12-22T08:39:19;17.85;;;9.05;;
70301;SDS011;57706;56.326;43.882;2023-12-22T08:41:45;18.55;;;9.48;;
70301;SDS011;57706;56.326;43.882;2023-12-22T08:44:12;13.98;;;9.25;;
70301;SDS011;57706;56.326;43.882;2023-12-22T08:46:41;14.60;;;8.57;;
70301;SDS011;57706;56.326;43.882;2023-12-22T08:49:07;15.95;;;9.25;;
70301;SDS011;57706;56.326;43.882;2023-12-22T08:51:33;15.95;;;9.05;;
70301;SDS011;57706;56.326;43.882;2023-12-22T08:53:59;20.50;;;10.15;;
70301;SDS011;57706;56.326;43.882;2023-12-22T08:56:25;18.35;;;11.55;;
70301;SDS011;57706;56.326;43.882;2023-12-22T08:58:52;21.40;;;11.02;;
70301;SDS011;57706;56.326;43.882;2023-12-22T09:01:21;26.73;;;13.05;;
70301;SDS011;57706;56.326;43.882;2023-12-22T09:03:47;26.65;;;13.80;;
70301;SDS011;57706;56.326;43.882;2023-12-22T09:06:17;26.73;;;12.65;;
70301;SDS011;57706;56.326;43.882;2023-12-22T09:08:45;28.42;;;13.05;;
70301;SDS011;57706;56.326;43.882;2023-12-22T09:11:11;28.52;;;14.25;;
70301;SDS011;57706;56.326;43.882;2023-12-22T09:13:38;26.50;;;14.10;;
70301;SDS011;57706;56.326;43.882;2023-12-22T09:16:04;25.95;;;13.27;;
70301;SDS011;57706;56.326;43.882;2023-12-22T09:18:31;27.15;;;13.43;;
70301;SDS011;57706;56.326;43.882;2023-12-22T09:20:57;25.48;;;11.82;;
70301;SDS011;57706;56.326;43.882;2023-12-22T09:23:23;24.13;;;12.60;;
70301;SDS011;57706;56.326;43.882;2023-12-22T09:25:49;25.63;;;13.07;;
70301;SDS011;57706;56.326;43.882;2023-12-22T09:28:15;19.65;;;9.35;;
70301;SDS011;57706;56.326;43.882;2023-12-22T09:30:41;21.40;;;10.48;;
70301;SDS011;57706;56.326;43.882;2023-12-22T09:33:08;19.13;;;10.07;;
70301;SDS011;57706;56.326;43.882;2023-12-22T09:35:35;20.60;;;10.63;;
70301;SDS011;57706;56.326;43.882;2023-12-22T09:38:01;21.02;;;9.93;;
70301;SDS011;57706;56.326;43.882;2023-12-22T09:40:27;19.27;;;9.70;;
70301;SDS011;57706;56.326;43.882;2023-12-22T09:42:55;17.90;;;9.02;;
70301;SDS011;57706;56.326;43.882;2023-12-22T09:45:21;16.88;;;9.02;;
70301;SDS011;57706;56.326;43.882;2023-12-22T09:47:47;20.35;;;9.05;;
70301;SDS011;57706;56.326;43.882;2023-12-22T09:50:14;15.93;;;8.82;;
70301;SDS011;57706;56.326;43.882;2023-12-22T09:52:41;18.67;;;8.73;;
70301;SDS011;57706;56.326;43.882;2023-12-22T09:55:14;14.65;;;7.05;;
70301;SDS011;57706;56.326;43.882;2023-12-22T09:57:41;12.20;;;6.57;;
70301;SDS011;57706;56.326;43.882;2023-12-22T10:00:08;16.20;;;7.05;;
70301;SDS011;57706;56.326;43.882;2023-12-22T10:02:35;14.63;;;7.90;;
70301;SDS011;57706;56.326;43.882;2023-12-22T10:05:02;15.00;;;7.43;;
70301;SDS011;57706;56.326;43.882;2023-12-22T10:07:30;14.60;;;7.43;;
70301;SDS011;57706;56.326;43.882;2023-12-22T10:09:57;14.40;;;6.97;;
70301;SDS011;57706;56.326;43.882;2023-12-22T10:12:24;12.90;;;6.47;;
70301;SDS011;57706;56.326;43.882;2023-12-22T10:14:52;15.43;;;7.53;;
70301;SDS011;57706;56.326;43.882;2023-12-22T10:17:19;12.75;;;5.93;;
70301;SDS011;57706;56.326;43.882;2023-12-22T10:19:45;13.18;;;7.20;;
70301;SDS011;57706;56.326;43.882;2023-12-22T10:22:11;13.48;;;8.00;;
70301;SDS011;57706;56.326;43.882;2023-12-22T10:27:12;13.55;;;6.63;;
70301;SDS011;57706;56.326;43.882;2023-12-22T10:29:40;12.00;;;6.53;;
70301;SDS011;57706;56.326;43.882;2023-12-22T10:32:07;21.98;;;7.15;;
70301;SDS011;57706;56.326;43.882;2023-12-22T10:34:34;12.85;;;7.43;;
70301;SDS011;57706;56.326;43.882;2023-12-22T10:37:00;15.50;;;7.55;;
70301;SDS011;57706;56.326;43.882;2023-12-22T10:39:30;17.25;;;8.23;;
70301;SDS011;57706;56.326;43.882;2023-12-22T10:41:57;14.30;;;7.25;;
70301;SDS011;57706;56.326;43.882;2023-12-22T10:44:24;13.30;;;6.85;;
70301;SDS011;57706;56.326;43.882;2023-12-22T10:46:50;11.32;;;5.68;;
70301;SDS011;57706;56.326;43.882;2023-12-22T10:49:17;9.20;;;5.60;;
70301;SDS011;57706;56.326;43.882;2023-12-22T10:51:43;8.95;;;5.05;;
70301;SDS011;57706;56.326;43.882;2023-12-22T10:54:09;14.27;;;8.02;;
70301;SDS011;57706;56.326;43.882;2023-12-22T10:56:35;17.00;;;9.02;;
70301;SDS011;57706;56.326;43.882;2023-12-22T10:59:01;18.75;;;9.07;;
70301;SDS011;57706;56.326;43.882;2023-12-22T11:01:28;15.35;;;8.15;;
70301;SDS011;57706;56.326;43.882;2023-12-22T11:03:57;17.83;;;8.00;;
70301;SDS011;57706;56.326;43.882;2023-12-22T11:06:27;14.38;;;6.95;;
70301;SDS011;57706;56.326;43.882;2023-12-22T11:08:56;15.57;;;7.97;;
70301;SDS011;57706;56.326;43.882;2023-12-22T11:11:33;15.48;;;7.40;;
70301;SDS011;57706;56.326;43.882;2023-12-22T11:14:01;16.35;;;7.78;;
70301;SDS011;57706;56.326;43.882;2023-12-22T11:16:28;14.60;;;7.90;;
70301;SDS011;57706;56.326;43.882;2023-12-22T11:18:54;16.23;;;7.80;;
70301;SDS011;57706;56.326;43.882;2023-12-22T11:21:22;13.48;;;7.18;;
70301;SDS011;57706;56.326;43.882;2023-12-22T11:23:49;15.90;;;9.07;;
70301;SDS011;57706;56.326;43.882;2023-12-22T11:26:19;17.73;;;9.10;;
70301;SDS011;57706;56.326;43.882;2023-12-22T11:28:47;13.75;;;7.75;;
70301;SDS011;57706;56.326;43.882;2023-12-22T11:31:14;12.63;;;7.28;;
70301;SDS011;57706;56.326;43.882;2023-12-22T11:33:45;16.13;;;7.10;;
70301;SDS011;57706;56.326;43.882;2023-12-22T11:36:15;12.80;;;7.65;;
70301;SDS011;57706;56.326;43.882;2023-12-22T11:38:43;11.57;;;6.68;;
70301;SDS011;57706;56.326;43.882;2023-12-22T11:41:18;11.15;;;6.53;;
70301;SDS011;57706;56.326;43.882;2023-12-22T11:43:48;10.50;;;6.15;;
70301;SDS011;57706;56.326;43.882;2023-12-22T11:46:16;12.32;;;6.50;;
70301;SDS011;57706;56.326;43.882;2023-12-22T11:48:47;11.35;;;5.85;;
70301;SDS011;57706;56.326;43.882;2023-12-22T11:51:17;13.13;;;7.07;;
70301;SDS011;57706;56.326;43.882;2023-12-22T11:53:44;13.32;;;7.35;;
70301;SDS011;57706;56.326;43.882;2023-12-22T11:56:11;14.85;;;7.10;;
70301;SDS011;57706;56.326;43.882;2023-12-22T11:58:39;11.80;;;6.00;;
70301;SDS011;57706;56.326;43.882;2023-12-22T12:01:07;13.75;;;6.20;;
70301;SDS011;57706;56.326;43.882;2023-12-22T12:03:35;12.93;;;6.60;;
70301;SDS011;57706;56.326;43.882;2023-12-22T12:08:57;10.10;;;5.82;;
70301;SDS011;57706;56.326;43.882;2023-12-22T12:12:08;12.25;;;6.57;;
70301;SDS011;57706;56.326;43.882;2023-12-22T12:14:21;13.70;;;6.95;;
70301;SDS011;57706;56.326;43.882;2023-12-22T12:16:49;11.57;;;5.88;;
70301;SDS011;57706;56.326;43.882;2023-12-22T12:19:15;11.25;;;5.50;;
70301;SDS011;57706;56.326;43.882;2023-12-22T12:21:40;8.73;;;5.90;;
70301;SDS011;57706;56.326;43.882;2023-12-22T12:24:15;10.65;;;5.50;;
70301;SDS011;57706;56.326;43.882;2023-12-22T12:26:43;9.70;;;5.85;;
70301;SDS011;57706;56.326;43.882;2023-12-22T12:29:09;11.45;;;5.10;;
70301;SDS011;57706;56.326;43.882;2023-12-22T12:31:35;8.50;;;5.05;;
70301;SDS011;57706;56.326;43.882;2023-12-22T12:34:07;13.25;;;6.35;;
70301;SDS011;57706;56.326;43.882;2023-12-22T12:36:36;11.55;;;6.53;;
70301;SDS011;57706;56.326;43.882;2023-12-22T12:39:09;12.68;;;5.78;;
70301;SDS011;57706;56.326;43.882;2023-12-22T12:41:41;10.18;;;6.40;;
70301;SDS011;57706;56.326;43.882;2023-12-22T12:44:11;14.45;;;7.07;;
70301;SDS011;57706;56.326;43.882;2023-12-22T12:46:40;11.32;;;6.25;;
70301;SDS011;57706;56.326;43.882;2023-12-22T12:49:10;14.27;;;7.72;;
70301;SDS011;57706;56.326;43.882;2023-12-22T12:51:43;12.63;;;7.50;;
70301;SDS011;57706;56.326;43.882;2023-12-22T12:54:10;11.85;;;6.97;;
70301;SDS011;57706;56.326;43.882;2023-12-22T12:56:46;13.30;;;7.32;;
70301;SDS011;57706;56.326;43.882;2023-12-22T12:59:14;10.50;;;6.93;;
70301;SDS011;57706;56.326;43.882;2023-12-22T13:01:46;12.45;;;6.63;;
70301;SDS011;57706;56.326;43.882;2023-12-22T13:04:13;10.05;;;6.50;;
70301;SDS011;57706;56.326;43.882;2023-12-22T13:06:43;9.32;;;5.68;;
70301;SDS011;57706;56.326;43.882;2023-12-22T13:09:18;9.90;;;5.55;;
70301;SDS011;57706;56.326;43.882;2023-12-22T13:11:45;8.80;;;5.65;;
70301;SDS011;57706;56.326;43.882;2023-12-22T13:14:12;11.00;;;5.93;;
70301;SDS011;57706;56.326;43.882;2023-12-22T13:16:47;9.68;;;5.07;;
70301;SDS011;57706;56.326;43.882;2023-12-22T13:19:13;10.98;;;4.90;;
70301;SDS011;57706;56.326;43.882;2023-12-22T13:21:39;10.40;;;5.15;;
70301;SDS011;57706;56.326;43.882;2023-12-22T13:24:11;9.15;;;5.70;;
70301;SDS011;57706;56.326;43.882;2023-12-22T13:26:38;10.10;;;5.85;;
70301;SDS011;57706;56.326;43.882;2023-12-22T13:29:05;9.15;;;5.80;;
70301;SDS011;57706;56.326;43.882;2023-12-22T13:31:32;10.57;;;5.30;;
70301;SDS011;57706;56.326;43.882;2023-12-22T13:34:01;9.70;;;5.50;;
70301;SDS011;57706;56.326;43.882;2023-12-22T13:36:28;9.52;;;5.13;;
70301;SDS011;57706;56.326;43.882;2023-12-22T13:38:58;10.35;;;5.85;;
70301;SDS011;57706;56.326;43.882;2023-12-22T13:41:25;9.18;;;5.22;;
70301;SDS011;57706;56.326;43.882;2023-12-22T13:43:50;11.63;;;6.10;;
70301;SDS011;57706;56.326;43.882;2023-12-22T13:46:17;12.73;;;6.05;;
70301;SDS011;57706;56.326;43.882;2023-12-22T13:48:43;10.77;;;6.05;;
70301;SDS011;57706;56.326;43.882;2023-12-22T13:51:10;12.93;;;6.53;;
70301;SDS011;57706;56.326;43.882;2023-12-22T13:53:46;13.80;;;6.25;;
70301;SDS011;57706;56.326;43.882;2023-12-22T13:56:13;10.98;;;6.22;;
70301;SDS011;57706;56.326;43.882;2023-12-22T13:58:43;9.45;;;5.75;;
70301;SDS011;57706;56.326;43.882;2023-12-22T14:01:13;10.15;;;6.30;;
70301;SDS011;57706;56.326;43.882;2023-12-22T14:03:41;12.30;;;6.60;;
70301;SDS011;57706;56.326;43.882;2023-12-22T14:06:07;8.60;;;5.55;;
70301;SDS011;57706;56.326;43.882;2023-12-22T14:08:43;9.40;;;5.63;;
70301;SDS011;57706;56.326;43.882;2023-12-22T14:11:09;9.95;;;5.50;;
70301;SDS011;57706;56.326;43.882;2023-12-22T14:13:35;11.13;;;6.28;;
70301;SDS011;57706;56.326;43.882;2023-12-22T14:16:05;9.85;;;6.30;;
70301;SDS011;57706;56.326;43.882;2023-12-22T14:18:32;8.65;;;6.18;;
70301;SDS011;57706;56.326;43.882;2023-12-22T14:20:57;7.65;;;5.25;;
70301;SDS011;57706;56.326;43.882;2023-12-22T14:23:24;10.00;;;5.68;;
70301;SDS011;57706;56.326;43.882;2023-12-22T14:25:51;12.27;;;6.55;;